createdAt,value
2024-03-10T00:00:26.185Z,151.35
2024-03-10T00:02:55.731Z,83.85
2024-03-10T00:05:23.236Z,46.15
2024-03-10T00:07:50.344Z,40.63
2024-03-10T00:10:17.148Z,50.40
2024-03-10T00:12:48.820Z,89.18
2024-03-10T00:15:20.770Z,235.95
2024-03-10T00:20:15.323Z,107.32
2024-03-10T00:22:46.115Z,131.13
2024-03-10T00:25:14.712Z,101.70
2024-03-10T00:27:42.206Z,245.70
2024-03-10T00:30:10.685Z,89.40
2024-03-10T00:32:38.339Z,102.00
2024-03-10T00:35:09.989Z,122.03
2024-03-10T00:37:37.163Z,115.05
2024-03-10T00:40:06.506Z,107.45
2024-03-10T00:42:33.282Z,97.05
2024-03-10T00:44:59.868Z,77.68
2024-03-10T00:47:26.679Z,63.45
2024-03-10T00:49:53.301Z,57.67
2024-03-10T00:52:20.136Z,74.72
2024-03-10T00:54:46.793Z,62.92
2024-03-10T00:57:13.439Z,60.30
2024-03-10T00:59:40.008Z,58.15
2024-03-10T01:02:06.954Z,86.18
2024-03-10T01:04:34.406Z,67.30
2024-03-10T01:07:01.238Z,87.03
2024-03-10T01:09:30.446Z,59.58
2024-03-10T01:11:57.254Z,42.13
2024-03-10T01:14:24.067Z,51.17
2024-03-10T01:16:50.856Z,42.42
2024-03-10T01:19:17.428Z,43.45
2024-03-10T01:21:47.563Z,42.42
2024-03-10T01:24:14.723Z,45.00
2024-03-10T01:26:41.351Z,49.17
2024-03-10T01:29:09.671Z,50.20
2024-03-10T01:31:36.509Z,42.30
2024-03-10T01:34:03.430Z,56.78
2024-03-10T01:36:30.618Z,31.30
2024-03-10T01:38:57.557Z,53.40
2024-03-10T01:41:27.431Z,34.50
2024-03-10T01:43:54.673Z,61.17
2024-03-10T01:46:22.973Z,42.17
2024-03-10T01:48:50.608Z,50.03
2024-03-10T01:51:18.137Z,35.70
2024-03-10T01:53:46.660Z,48.95
2024-03-10T01:56:14.649Z,35.95
2024-03-10T01:58:46.492Z,62.03
2024-03-10T02:01:15.407Z,46.20
2024-03-10T02:03:44.332Z,42.85
2024-03-10T02:06:11.546Z,39.05
2024-03-10T02:08:39.280Z,38.42
2024-03-10T02:11:11.055Z,39.55
2024-03-10T02:13:38.996Z,36.50
2024-03-10T02:16:07.235Z,41.35
2024-03-10T02:18:34.502Z,62.20
2024-03-10T02:21:02.051Z,81.93
2024-03-10T02:23:42.512Z,138.45
2024-03-10T02:26:10.832Z,79.47
2024-03-10T02:28:48.241Z,63.03
2024-03-10T02:31:33.833Z,64.90
2024-03-10T02:34:18.941Z,38.15
2024-03-10T02:37:06.337Z,30.23
2024-03-10T02:39:51.833Z,34.78
2024-03-10T02:42:37.015Z,42.78
2024-03-10T02:45:22.587Z,49.70
2024-03-10T02:47:50.444Z,42.83
2024-03-10T02:50:17.179Z,58.67
2024-03-10T02:52:43.914Z,44.97
2024-03-10T02:55:13.150Z,42.97
2024-03-10T02:57:39.920Z,57.08
2024-03-10T03:00:13.678Z,47.58
2024-03-10T03:02:40.323Z,42.92
2024-03-10T03:05:08.813Z,46.67
2024-03-10T03:07:35.650Z,56.05
2024-03-10T03:10:02.316Z,58.92
2024-03-10T03:12:28.988Z,39.05
2024-03-10T03:14:55.585Z,34.70
2024-03-10T03:17:25.278Z,32.58
2024-03-10T03:19:52.140Z,31.88
2024-03-10T03:22:18.860Z,40.47
2024-03-10T03:24:45.502Z,32.85
2024-03-10T03:27:12.146Z,31.02
2024-03-10T03:29:39.045Z,29.23
2024-03-10T03:32:06.783Z,28.77
2024-03-10T03:34:34.670Z,31.38
2024-03-10T03:37:01.324Z,40.25
2024-03-10T03:39:28.022Z,35.38
2024-03-10T03:41:54.906Z,33.28
2024-03-10T03:44:21.769Z,35.20
2024-03-10T03:46:48.454Z,33.72
2024-03-10T03:49:15.128Z,33.58
2024-03-10T03:51:44.051Z,33.83
2024-03-10T03:54:10.865Z,30.17
2024-03-10T03:56:37.470Z,30.80
2024-03-10T03:59:05.091Z,34.03
2024-03-10T04:01:32.189Z,31.65
2024-03-10T04:03:58.889Z,33.38
2024-03-10T04:06:25.553Z,32.10
2024-03-10T04:08:58.230Z,30.10
2024-03-10T04:11:25.985Z,29.08
2024-03-10T04:13:52.642Z,28.17
2024-03-10T04:16:20.509Z,33.97
2024-03-10T04:18:47.276Z,29.73
2024-03-10T04:21:15.306Z,28.85
2024-03-10T04:23:42.178Z,29.13
2024-03-10T04:26:10.490Z,26.65
2024-03-10T04:28:37.700Z,26.70
2024-03-10T04:31:04.503Z,28.27
2024-03-10T04:33:31.151Z,28.95
2024-03-10T04:35:57.795Z,30.42
2024-03-10T04:38:25.018Z,26.80
2024-03-10T04:40:51.801Z,26.92
2024-03-10T04:43:21.391Z,26.73
2024-03-10T04:45:50.101Z,27.63
2024-03-10T04:48:17.315Z,30.15
2024-03-10T04:50:44.330Z,29.48
2024-03-10T04:53:11.499Z,28.45
2024-03-10T04:55:38.486Z,26.60
2024-03-10T04:58:05.036Z,27.20
2024-03-10T05:00:31.712Z,27.90
2024-03-10T05:02:58.712Z,28.92
2024-03-10T05:05:25.668Z,28.17
2024-03-10T05:07:52.920Z,27.05
2024-03-10T05:10:20.776Z,27.63
2024-03-10T05:12:47.548Z,27.67
2024-03-10T05:15:17.053Z,29.80
2024-03-10T05:17:44.277Z,27.27
2024-03-10T05:22:43.346Z,25.52
2024-03-10T05:25:12.339Z,25.08
2024-03-10T05:27:42.365Z,26.98
2024-03-10T05:32:28.608Z,27.60
2024-03-10T05:34:57.869Z,24.63
2024-03-10T05:37:24.592Z,26.85
2024-03-10T05:39:51.334Z,25.17
2024-03-10T05:42:18.238Z,25.20
2024-03-10T05:44:44.880Z,23.55
2024-03-10T05:47:12.534Z,26.92
2024-03-10T05:49:39.245Z,28.13
2024-03-10T05:52:06.236Z,25.73
2024-03-10T05:54:35.153Z,25.63
2024-03-10T05:57:01.814Z,25.33
2024-03-10T06:01:54.808Z,24.30
2024-03-10T06:04:21.461Z,26.63
2024-03-10T06:06:48.029Z,24.35
2024-03-10T06:09:16.160Z,27.77
2024-03-10T06:11:42.834Z,24.35
2024-03-10T06:14:09.675Z,44.50
2024-03-10T06:16:36.309Z,102.97
2024-03-10T06:19:02.945Z,64.18
2024-03-10T06:24:12.938Z,25.50
2024-03-10T06:26:40.145Z,26.25
2024-03-10T06:29:07.763Z,24.50
2024-03-10T06:31:34.422Z,28.45
2024-03-10T06:34:01.156Z,27.30
2024-03-10T06:36:28.422Z,35.53
2024-03-10T06:38:55.024Z,22.90
2024-03-10T06:41:21.734Z,24.80
2024-03-10T06:43:50.845Z,25.40
2024-03-10T06:46:17.640Z,25.50
2024-03-10T06:48:44.230Z,27.38
2024-03-10T06:51:11.937Z,25.40
2024-03-10T06:53:38.770Z,24.75
2024-03-10T06:56:06.959Z,24.02
2024-03-10T06:58:33.604Z,21.90
2024-03-10T07:01:03.813Z,23.90
2024-03-10T07:03:32.071Z,22.20
2024-03-10T07:06:01.598Z,23.80
2024-03-10T07:08:28.719Z,23.55
2024-03-10T07:10:55.391Z,23.50
2024-03-10T07:13:22.086Z,32.05
2024-03-10T07:15:48.953Z,22.55
2024-03-10T07:18:18.217Z,22.67
2024-03-10T07:20:46.612Z,21.08
2024-03-10T07:23:14.491Z,21.60
2024-03-10T07:25:41.400Z,20.67
2024-03-10T07:28:08.163Z,21.27
2024-03-10T07:30:35.420Z,21.30
2024-03-10T07:33:02.914Z,23.30
2024-03-10T07:35:29.732Z,21.92
2024-03-10T07:37:57.000Z,19.65
2024-03-10T07:40:25.089Z,20.50
2024-03-10T07:42:51.805Z,19.45
2024-03-10T07:45:19.192Z,20.30
2024-03-10T07:47:47.796Z,19.83
2024-03-10T07:50:15.907Z,20.10
2024-03-10T07:52:45.240Z,19.58
2024-03-10T07:55:12.166Z,19.73
2024-03-10T07:57:40.821Z,20.83
2024-03-10T08:00:12.269Z,19.60
2024-03-10T08:02:41.247Z,18.58
2024-03-10T08:05:12.150Z,20.88
2024-03-10T08:07:46.252Z,20.92
2024-03-10T08:10:15.435Z,20.83
2024-03-10T08:12:46.513Z,18.50
2024-03-10T08:15:14.734Z,20.00
2024-03-10T08:17:42.827Z,19.27
2024-03-10T08:20:15.249Z,18.95
2024-03-10T08:22:43.781Z,19.75
2024-03-10T08:25:10.876Z,20.15
2024-03-10T08:27:37.954Z,18.98
2024-03-10T08:30:06.060Z,17.42
2024-03-10T08:32:33.118Z,18.00
2024-03-10T08:34:59.808Z,17.08
2024-03-10T08:37:29.169Z,16.55
2024-03-10T08:39:56.013Z,18.67
2024-03-10T08:42:25.883Z,16.92
2024-03-10T08:44:52.604Z,17.63
2024-03-10T08:47:19.290Z,17.55
2024-03-10T08:49:46.052Z,16.42
2024-03-10T08:52:13.607Z,15.43
2024-03-10T08:54:40.362Z,15.65
2024-03-10T08:57:07.127Z,18.40
2024-03-10T08:59:34.066Z,15.85
2024-03-10T09:02:02.897Z,16.10
2024-03-10T09:04:29.680Z,17.30
2024-03-10T09:06:56.288Z,14.77
2024-03-10T09:09:23.601Z,14.65
2024-03-10T09:11:50.503Z,16.50
2024-03-10T09:14:19.674Z,17.13
2024-03-10T09:16:46.504Z,16.73
2024-03-10T09:19:13.247Z,15.93
2024-03-10T09:21:39.903Z,15.93
2024-03-10T09:24:06.795Z,16.05
2024-03-10T09:26:33.520Z,16.73
2024-03-10T09:29:02.288Z,16.17
2024-03-10T09:31:29.471Z,15.57
2024-03-10T09:33:58.380Z,17.58
2024-03-10T09:36:26.022Z,16.25
2024-03-10T09:38:53.426Z,14.43
2024-03-10T09:41:22.203Z,14.25
2024-03-10T09:43:55.337Z,14.70
2024-03-10T09:46:22.967Z,14.85
2024-03-10T09:48:50.664Z,13.40
2024-03-10T09:51:17.365Z,15.30
2024-03-10T09:53:45.618Z,15.35
2024-03-10T09:56:13.946Z,14.70
2024-03-10T09:58:51.742Z,14.15
2024-03-10T10:01:22.276Z,13.70
2024-03-10T10:03:54.381Z,12.48
2024-03-10T10:08:55.935Z,12.25
2024-03-10T10:11:24.763Z,12.60
2024-03-10T10:14:18.176Z,13.32
2024-03-10T10:16:58.650Z,14.30
2024-03-10T10:19:31.341Z,13.13
2024-03-10T10:21:59.395Z,14.30
2024-03-10T10:24:26.328Z,13.77
2024-03-10T10:27:00.316Z,14.15
2024-03-10T10:29:29.033Z,13.23
2024-03-10T10:32:00.999Z,13.63
2024-03-10T10:36:56.588Z,13.85
2024-03-10T10:39:31.308Z,12.07
2024-03-10T10:42:02.018Z,12.95
2024-03-10T10:44:29.718Z,12.45
2024-03-10T10:46:59.540Z,12.75
2024-03-10T10:49:27.079Z,12.15
2024-03-10T10:51:57.826Z,11.65
2024-03-10T10:54:26.106Z,13.23
2024-03-10T10:56:57.334Z,12.10
2024-03-10T10:59:28.502Z,11.00
2024-03-10T11:01:57.527Z,13.35
2024-03-10T11:04:27.923Z,11.02
2024-03-10T11:06:57.050Z,10.95
2024-03-10T11:09:31.841Z,12.63
2024-03-10T11:12:00.051Z,14.90
2024-03-10T11:14:27.996Z,12.50
2024-03-10T11:17:14.371Z,12.00
2024-03-10T11:19:41.658Z,12.57
2024-03-10T11:22:09.442Z,10.95
2024-03-10T11:24:36.650Z,11.48
2024-03-10T11:27:16.198Z,9.93
2024-03-10T11:29:43.280Z,10.10
2024-03-10T11:32:32.363Z,8.70
2024-03-10T11:35:21.418Z,10.18
2024-03-10T11:37:50.743Z,9.73
2024-03-10T11:40:17.958Z,19.70
2024-03-10T11:42:46.529Z,12.43
2024-03-10T11:45:13.521Z,9.68
2024-03-10T11:47:40.721Z,9.50
2024-03-10T11:50:08.121Z,10.80
2024-03-10T11:52:34.791Z,10.02
2024-03-10T11:55:07.802Z,8.98
2024-03-10T11:57:35.057Z,10.60
2024-03-10T12:00:02.347Z,9.27
2024-03-10T12:02:34.058Z,10.20
2024-03-10T12:05:06.776Z,8.80
2024-03-10T12:07:36.105Z,8.52
2024-03-10T12:10:09.787Z,8.75
2024-03-10T12:12:38.438Z,10.77
2024-03-10T12:15:18.925Z,8.27
2024-03-10T12:17:53.171Z,8.60
2024-03-10T12:20:21.975Z,8.73
2024-03-10T12:22:49.650Z,7.50
2024-03-10T12:25:19.691Z,7.80
2024-03-10T12:27:48.970Z,8.57
2024-03-10T12:30:17.924Z,6.57
2024-03-10T12:32:45.650Z,8.43
2024-03-10T12:35:12.625Z,6.30
2024-03-10T12:37:41.680Z,5.97
2024-03-10T12:40:09.658Z,5.88
2024-03-10T12:42:39.599Z,5.90
2024-03-10T12:45:09.425Z,6.25
2024-03-10T12:47:36.506Z,5.18
2024-03-10T12:50:08.729Z,4.88
2024-03-10T12:52:36.233Z,5.13
2024-03-10T12:55:04.302Z,6.40
2024-03-10T12:57:30.971Z,6.90
2024-03-10T12:59:57.563Z,5.70
2024-03-10T13:02:24.437Z,4.93
2024-03-10T13:04:51.119Z,4.88
2024-03-10T13:07:17.996Z,5.32
2024-03-10T13:09:44.600Z,5.50
2024-03-10T13:12:11.940Z,5.60
2024-03-10T13:14:38.781Z,4.63
2024-03-10T13:17:05.533Z,5.13
2024-03-10T13:19:34.136Z,7.70
2024-03-10T13:22:00.960Z,4.57
2024-03-10T13:24:27.609Z,4.90
2024-03-10T13:26:54.689Z,5.57
2024-03-10T13:29:21.490Z,6.20
2024-03-10T13:31:48.115Z,7.20
2024-03-10T13:34:14.839Z,7.30
2024-03-10T13:36:41.598Z,7.57
2024-03-10T13:39:11.394Z,7.50
2024-03-10T13:41:40.002Z,7.35
2024-03-10T13:44:06.761Z,7.57
2024-03-10T13:46:33.763Z,7.97
2024-03-10T13:49:00.772Z,6.05
2024-03-10T13:51:27.420Z,6.63
2024-03-10T13:53:54.079Z,6.13
2024-03-10T13:56:20.768Z,8.77
2024-03-10T13:58:47.480Z,7.50
2024-03-10T14:01:17.056Z,7.25
2024-03-10T14:03:44.206Z,7.65
2024-03-10T14:06:10.944Z,8.70
2024-03-10T14:08:38.301Z,8.45
2024-03-10T14:11:05.320Z,8.55
2024-03-10T14:13:31.916Z,9.25
2024-03-10T14:15:59.249Z,8.35
2024-03-10T14:18:25.989Z,7.60
2024-03-10T14:20:52.850Z,9.43
2024-03-10T14:23:21.456Z,8.65
2024-03-10T14:25:48.127Z,8.98
2024-03-10T14:28:16.294Z,7.35
2024-03-10T14:30:43.095Z,7.43
2024-03-10T14:33:09.941Z,7.55
2024-03-10T14:35:36.647Z,8.27
2024-03-10T14:38:05.541Z,8.55
2024-03-10T14:40:34.412Z,7.50
2024-03-10T14:43:01.243Z,7.70
2024-03-10T14:45:30.388Z,9.90
2024-03-10T14:47:57.234Z,10.15
2024-03-10T14:50:26.095Z,9.60
2024-03-10T14:52:55.591Z,7.90
2024-03-10T14:55:22.865Z,10.85
2024-03-10T14:57:50.187Z,8.52
2024-03-10T15:00:37.354Z,7.82
2024-03-10T15:03:12.152Z,8.55
2024-03-10T15:05:43.282Z,8.00
2024-03-10T15:08:12.531Z,8.50
2024-03-10T15:10:42.255Z,10.05
2024-03-10T15:13:10.247Z,7.57
2024-03-10T15:15:38.203Z,9.73
2024-03-10T15:18:06.825Z,11.55
2024-03-10T15:20:34.472Z,9.98
2024-03-10T15:23:02.614Z,9.13
2024-03-10T15:25:35.268Z,7.97
2024-03-10T15:28:02.412Z,7.85
2024-03-10T15:30:29.168Z,11.15
2024-03-10T15:32:55.858Z,11.35
2024-03-10T15:35:22.907Z,11.40
2024-03-10T15:37:49.931Z,10.27
2024-03-10T15:40:20.277Z,11.25
2024-03-10T15:42:48.176Z,9.48
2024-03-10T15:45:20.145Z,9.65
2024-03-10T15:47:49.896Z,7.78
2024-03-10T15:50:19.865Z,9.45
2024-03-10T15:52:48.904Z,9.10
2024-03-10T15:55:18.022Z,10.10
2024-03-10T15:57:47.216Z,11.38
2024-03-10T16:00:21.567Z,9.52
2024-03-10T16:02:53.552Z,8.50
2024-03-10T16:05:48.786Z,8.50
2024-03-10T16:08:19.263Z,8.75
2024-03-10T16:10:47.595Z,7.97
2024-03-10T16:13:37.502Z,7.88
2024-03-10T16:16:06.755Z,8.93
2024-03-10T16:18:38.371Z,8.05
2024-03-10T16:21:09.798Z,8.45
2024-03-10T16:23:36.606Z,7.63
2024-03-10T16:26:04.637Z,10.05
2024-03-10T16:28:31.266Z,9.65
2024-03-10T16:30:57.859Z,11.70
2024-03-10T16:33:24.565Z,8.63
2024-03-10T16:35:51.297Z,8.10
2024-03-10T16:38:17.990Z,7.72
2024-03-10T16:40:44.706Z,8.27
2024-03-10T16:43:11.306Z,10.98
2024-03-10T16:45:39.465Z,11.23
2024-03-10T16:48:06.813Z,12.30
2024-03-10T16:50:34.608Z,12.93
2024-03-10T16:53:07.184Z,10.85
2024-03-10T16:55:34.093Z,12.68
2024-03-10T16:58:07.981Z,15.93
2024-03-10T17:00:36.359Z,13.63
2024-03-10T17:03:05.797Z,12.77
2024-03-10T17:05:35.955Z,13.88
2024-03-10T17:08:05.427Z,12.02
2024-03-10T17:10:32.602Z,12.05
2024-03-10T17:13:02.084Z,11.18
2024-03-10T17:15:29.722Z,10.25
2024-03-10T17:17:56.647Z,11.23
2024-03-10T17:20:24.993Z,11.38
2024-03-10T17:22:52.345Z,11.98
2024-03-10T17:25:18.966Z,11.48
2024-03-10T17:27:45.703Z,11.48
2024-03-10T17:30:17.232Z,12.00
2024-03-10T17:32:51.663Z,12.70
2024-03-10T17:35:20.745Z,10.77
2024-03-10T17:37:47.405Z,11.65
2024-03-10T17:40:15.281Z,11.13
2024-03-10T17:42:42.561Z,12.85
2024-03-10T17:45:12.296Z,12.70
2024-03-10T17:47:39.665Z,12.90
2024-03-10T17:50:08.117Z,12.55
2024-03-10T17:52:35.134Z,13.15
2024-03-10T17:55:02.193Z,12.60
2024-03-10T17:57:29.129Z,13.30
2024-03-10T17:59:55.780Z,15.77
2024-03-10T18:02:23.665Z,14.65
2024-03-10T18:04:50.268Z,12.85
2024-03-10T18:07:17.460Z,16.25
2024-03-10T18:09:44.145Z,14.40
2024-03-10T18:12:11.754Z,14.05
2024-03-10T18:14:38.441Z,15.45
2024-03-10T18:17:06.728Z,15.02
2024-03-10T18:19:33.537Z,15.38
2024-03-10T18:22:00.422Z,15.75
2024-03-10T18:24:27.056Z,14.27
2024-03-10T18:26:53.722Z,13.23
2024-03-10T18:29:22.227Z,15.27
2024-03-10T18:31:50.591Z,12.48
2024-03-10T18:34:17.407Z,15.00
2024-03-10T18:36:44.229Z,16.00
2024-03-10T18:39:11.880Z,13.70
2024-03-10T18:41:38.826Z,15.20
2024-03-10T18:44:07.667Z,14.70
2024-03-10T18:49:05.763Z,15.48
2024-03-10T18:51:33.105Z,14.68
2024-03-10T18:53:59.870Z,15.52
2024-03-10T18:56:28.493Z,16.27
2024-03-10T18:58:56.805Z,15.77
2024-03-10T19:01:24.030Z,17.15
2024-03-10T19:03:51.511Z,16.23
2024-03-10T19:06:19.186Z,18.35
2024-03-10T19:08:46.154Z,17.10
2024-03-10T19:11:13.353Z,17.77
2024-03-10T19:13:41.422Z,18.02
2024-03-10T19:16:10.465Z,19.75
2024-03-10T19:18:38.098Z,18.15
2024-03-10T19:21:06.890Z,20.30
2024-03-10T19:23:33.866Z,19.35
2024-03-10T19:26:04.680Z,21.35
2024-03-10T19:28:32.278Z,19.52
2024-03-10T19:31:01.332Z,21.60
2024-03-10T19:33:28.412Z,22.73
2024-03-10T19:35:56.394Z,22.23
2024-03-10T19:38:23.487Z,21.65
2024-03-10T19:40:51.509Z,20.35
2024-03-10T19:45:36.851Z,20.15
2024-03-10T19:48:03.741Z,16.17
2024-03-10T19:50:30.416Z,19.42
2024-03-10T19:52:57.127Z,21.05
2024-03-10T19:55:23.887Z,19.55
2024-03-10T19:57:50.597Z,18.90
2024-03-10T20:00:18.204Z,22.80
2024-03-10T20:02:47.062Z,20.00
2024-03-10T20:05:15.401Z,22.48
2024-03-10T20:07:52.491Z,24.05
2024-03-10T20:10:21.355Z,21.95
2024-03-10T20:12:50.920Z,22.60
2024-03-10T20:15:18.797Z,26.10
2024-03-10T20:17:49.510Z,29.65
2024-03-10T20:20:23.586Z,24.70
2024-03-10T20:22:55.817Z,23.15
2024-03-10T20:25:26.626Z,24.30
2024-03-10T20:27:54.599Z,22.77
2024-03-10T20:30:21.203Z,19.27
2024-03-10T20:32:48.205Z,21.45
2024-03-10T20:35:15.955Z,21.60
2024-03-10T20:37:44.617Z,20.45
2024-03-10T20:40:16.154Z,24.63
2024-03-10T20:42:44.833Z,20.63
2024-03-10T20:45:11.648Z,20.73
2024-03-10T20:47:40.020Z,20.67
2024-03-10T20:50:08.441Z,21.85
2024-03-10T20:52:35.600Z,21.80
2024-03-10T20:55:03.141Z,22.42
2024-03-10T20:57:29.981Z,22.70
2024-03-10T20:59:57.290Z,23.20
2024-03-10T21:02:24.922Z,23.17
2024-03-10T21:04:52.134Z,21.67
2024-03-10T21:07:18.914Z,23.40
2024-03-10T21:09:45.800Z,23.48
2024-03-10T21:12:12.639Z,23.33
2024-03-10T21:14:39.385Z,21.65
2024-03-10T21:17:06.796Z,21.27
2024-03-10T21:19:34.221Z,23.90
2024-03-10T21:22:01.084Z,22.48
2024-03-10T21:24:27.843Z,22.45
2024-03-10T21:26:54.487Z,22.58
2024-03-10T21:29:23.016Z,20.77
2024-03-10T21:31:49.808Z,19.00
2024-03-10T21:34:16.502Z,20.15
2024-03-10T21:36:44.024Z,18.75
2024-03-10T21:39:12.144Z,18.17
2024-03-10T21:41:39.213Z,18.50
2024-03-10T21:44:07.122Z,17.98
2024-03-10T21:46:33.788Z,18.65
2024-03-10T21:49:01.663Z,16.67
2024-03-10T21:51:28.408Z,17.50
2024-03-10T21:53:55.053Z,18.40
2024-03-10T21:56:22.267Z,17.50
2024-03-10T21:58:48.822Z,18.70
2024-03-10T22:01:17.700Z,17.50
2024-03-10T22:03:44.708Z,16.27
2024-03-10T22:06:11.360Z,16.77
2024-03-10T22:08:38.086Z,15.52
2024-03-10T22:11:04.830Z,14.40
2024-03-10T22:13:31.526Z,14.80
2024-03-10T22:15:58.350Z,18.27
2024-03-10T22:18:27.674Z,17.52
2024-03-10T22:20:55.837Z,18.02
2024-03-10T22:23:22.553Z,15.30
2024-03-10T22:25:49.375Z,14.05
2024-03-10T22:28:15.921Z,15.48
2024-03-10T22:30:43.139Z,15.70
2024-03-10T22:33:09.791Z,15.57
2024-03-10T22:35:36.427Z,15.10
2024-03-10T22:38:03.236Z,15.88
2024-03-10T22:40:32.015Z,17.92
2024-03-10T22:43:01.285Z,18.27
2024-03-10T22:45:31.560Z,16.92
2024-03-10T22:48:01.256Z,16.05
2024-03-10T22:50:28.500Z,15.98
2024-03-10T22:52:55.972Z,15.57
2024-03-10T22:55:24.007Z,18.05
2024-03-10T22:57:50.867Z,14.43
2024-03-10T23:00:20.877Z,15.48
2024-03-10T23:02:48.392Z,16.83
2024-03-10T23:05:19.577Z,16.23
2024-03-10T23:07:46.519Z,15.82
2024-03-10T23:10:13.213Z,14.13
2024-03-10T23:12:41.055Z,15.82
2024-03-10T23:15:08.638Z,16.88
2024-03-10T23:17:36.360Z,15.30
2024-03-10T23:20:08.027Z,15.60
2024-03-10T23:22:35.068Z,19.17
2024-03-10T23:25:05.462Z,16.48
2024-03-10T23:27:33.513Z,15.85
2024-03-10T23:30:01.766Z,14.60
2024-03-10T23:32:31.632Z,14.02
2024-03-10T23:34:59.014Z,16.50
2024-03-10T23:37:27.472Z,15.50
2024-03-10T23:39:54.168Z,14.27
2024-03-10T23:42:23.426Z,15.10
2024-03-10T23:45:13.482Z,13.85
2024-03-10T23:47:41.461Z,14.52
2024-03-10T23:50:14.205Z,15.27
2024-03-10T23:52:43.513Z,15.32
2024-03-10T23:55:11.220Z,14.80
2024-03-10T23:57:39.080Z,14.70
